createdAt,value
2022-07-25T00:00:14.245Z,21.5
2022-07-25T00:15:11.754Z,21.5
2022-07-25T00:30:12.248Z,21.4
2022-07-25T00:45:10.129Z,21.4
2022-07-25T01:00:13.692Z,21.3
2022-07-25T01:15:11.048Z,21.3
2022-07-25T01:30:11.479Z,21.3
2022-07-25T01:45:09.999Z,21.2
2022-07-25T02:00:13.928Z,21.2
2022-07-25T02:15:10.261Z,21.2
2022-07-25T02:30:13.102Z,21.1
2022-07-25T02:45:10.193Z,21.1
2022-07-25T03:00:12.803Z,21.0
2022-07-25T03:15:09.735Z,21
2022-07-25T03:30:12.717Z,20.9
2022-07-25T03:45:11.010Z,20.9
2022-07-25T04:00:13.769Z,20.9
2022-07-25T04:15:10.892Z,20.9
2022-07-25T04:30:13.925Z,20.8
2022-07-25T04:45:11.026Z,20.8
2022-07-25T05:00:14.552Z,20.8
2022-07-25T05:15:11.489Z,20.8
2022-07-25T05:30:13.061Z,20.9
2022-07-25T05:45:12.549Z,20.9
2022-07-25T06:00:14.206Z,21.0
2022-07-25T06:15:12.611Z,21.2
2022-07-25T06:30:19.545Z,21.3
2022-07-25T06:45:11.973Z,21.5
2022-07-25T07:00:16.456Z,21.6
2022-07-25T07:15:11.642Z,21.8
2022-07-25T07:30:14.020Z,21.9
2022-07-25T07:45:11.611Z,22.2
2022-07-25T08:00:16.500Z,22.3
2022-07-25T08:15:10.876Z,22.6
2022-07-25T08:30:14.592Z,22.6
2022-07-25T08:45:11.797Z,22.8
2022-07-25T09:00:16.071Z,22.9
2022-07-25T09:15:11.475Z,23.1
2022-07-25T09:30:13.372Z,23.3
2022-07-25T09:45:13.699Z,23.4
2022-07-25T10:00:19.311Z,23.3
2022-07-25T10:15:10.327Z,23.2
2022-07-25T10:30:12.482Z,23.2
2022-07-25T10:45:11.154Z,23.2
2022-07-25T11:00:13.508Z,23.2
2022-07-25T11:15:14.452Z,23.3
2022-07-25T11:30:12.626Z,23.3
2022-07-25T11:45:13.378Z,23.3
2022-07-25T12:00:13.315Z,23.3
2022-07-25T12:15:12.091Z,23.4
2022-07-25T12:30:13.076Z,23.4
2022-07-25T12:45:12.711Z,23.4
2022-07-25T13:00:15.175Z,23.5
2022-07-25T13:15:15.145Z,23.5
2022-07-25T13:30:15.255Z,23.6
2022-07-25T13:45:11.210Z,23.6
2022-07-25T14:00:14.404Z,23.6
2022-07-25T14:15:12.485Z,23.6
2022-07-25T14:30:13.319Z,23.7
2022-07-25T14:45:11.935Z,23.7
2022-07-25T15:00:15.442Z,23.6
2022-07-25T15:15:12.635Z,23.6
2022-07-25T15:30:14.889Z,23.5
2022-07-25T15:45:31.190Z,23.5
2022-07-25T16:00:13.314Z,23.4
2022-07-25T16:15:12.831Z,23.4
2022-07-25T16:30:13.774Z,23.4
2022-07-25T16:45:12.454Z,23.4
2022-07-25T17:00:14.336Z,23.4
2022-07-25T17:15:12.027Z,23.5
2022-07-25T17:30:15.460Z,23.5
2022-07-25T17:45:12.667Z,23.5
2022-07-25T18:00:16.449Z,23.5
2022-07-25T18:15:12.713Z,23.4
2022-07-25T18:30:14.193Z,23.4
2022-07-25T18:45:13.857Z,23.3
2022-07-25T19:00:16.687Z,23.2
2022-07-25T19:15:12.475Z,23.2
2022-07-25T19:30:17.284Z,23.1
2022-07-25T19:45:20.656Z,23.0
2022-07-25T20:00:36.061Z,22.9
2022-07-25T20:15:20.737Z,22.9
2022-07-25T20:30:34.446Z,22.8
2022-07-25T20:45:11.561Z,22.8
2022-07-25T21:00:14.984Z,22.7
2022-07-25T21:15:10.975Z,22.6
2022-07-25T21:30:11.227Z,22.5
2022-07-25T21:45:10.862Z,22.4
2022-07-25T22:00:13.271Z,22.3
2022-07-25T22:15:12.187Z,22.3
2022-07-25T22:30:18.164Z,22.3
2022-07-25T22:45:12.352Z,22.2
2022-07-25T23:00:11.821Z,22.2
2022-07-25T23:15:10.482Z,22.1
2022-07-25T23:30:12.551Z,22.0
2022-07-25T23:45:11.615Z,22
